sensor_id;sensor_type;location;lat;lon;timestamp;temperature;humidity
18456;DHT22;9357;49.900;8.208;2023-04-04T00:01:19;0.90;99.90
18456;DHT22;9357;49.900;8.208;2023-04-04T00:02:52;0.90;99.90
18456;DHT22;9357;49.900;8.208;2023-04-04T00:04:25;1.00;99.90
18456;DHT22;9357;49.900;8.208;2023-04-04T00:05:58;0.90;99.90
18456;DHT22;9357;49.900;8.208;2023-04-04T00:07:31;0.90;99.90
18456;DHT22;9357;49.900;8.208;2023-04-04T00:09:04;0.90;99.90
18456;DHT22;9357;49.900;8.208;2023-04-04T00:10:38;0.90;99.90
18456;DHT22;9357;49.900;8.208;2023-04-04T00:12:12;0.90;99.90
18456;DHT22;9357;49.900;8.208;2023-04-04T00:13:44;0.90;99.90
18456;DHT22;9357;49.900;8.208;2023-04-04T00:15:17;0.90;99.90
18456;DHT22;9357;49.900;8.208;2023-04-04T00:16:49;0.90;99.90
18456;DHT22;9357;49.900;8.208;2023-04-04T00:18:22;0.90;99.90
18456;DHT22;9357;49.900;8.208;2023-04-04T00:19:55;0.90;99.90
18456;DHT22;9357;49.900;8.208;2023-04-04T00:21:28;0.90;99.90
18456;DHT22;9357;49.900;8.208;2023-04-04T00:23:02;0.90;99.90
18456;DHT22;9357;49.900;8.208;2023-04-04T00:24:35;0.90;99.90
18456;DHT22;9357;49.900;8.208;2023-04-04T00:26:09;0.90;99.90
18456;DHT22;9357;49.900;8.208;2023-04-04T00:27:42;0.90;99.90
18456;DHT22;9357;49.900;8.208;2023-04-04T00:29:14;0.90;99.90
18456;DHT22;9357;49.900;8.208;2023-04-04T00:30:47;0.90;99.90
18456;DHT22;9357;49.900;8.208;2023-04-04T00:32:20;0.90;99.90
18456;DHT22;9357;49.900;8.208;2023-04-04T00:33:52;0.90;99.90
18456;DHT22;9357;49.900;8.208;2023-04-04T00:35:25;0.90;99.90
18456;DHT22;9357;49.900;8.208;2023-04-04T00:36:58;0.90;99.90
18456;DHT22;9357;49.900;8.208;2023-04-04T00:38:31;0.90;99.90
18456;DHT22;9357;49.900;8.208;2023-04-04T00:40:05;0.90;99.90
18456;DHT22;9357;49.900;8.208;2023-04-04T00:41:40;0.90;99.90
18456;DHT22;9357;49.900;8.208;2023-04-04T00:43:13;0.90;99.90
18456;DHT22;9357;49.900;8.208;2023-04-04T00:44:46;0.90;99.90
18456;DHT22;9357;49.900;8.208;2023-04-04T00:46:19;0.80;99.90
18456;DHT22;9357;49.900;8.208;2023-04-04T00:47:54;0.80;99.90
18456;DHT22;9357;49.900;8.208;2023-04-04T00:49:27;0.80;99.90
18456;DHT22;9357;49.900;8.208;2023-04-04T00:50:59;0.80;99.90
18456;DHT22;9357;49.900;8.208;2023-04-04T00:52:32;0.80;99.90
18456;DHT22;9357;49.900;8.208;2023-04-04T00:54:06;0.80;99.90
18456;DHT22;9357;49.900;8.208;2023-04-04T00:55:39;0.80;99.90
18456;DHT22;9357;49.900;8.208;2023-04-04T00:57:15;0.80;99.90
18456;DHT22;9357;49.900;8.208;2023-04-04T00:58:48;0.80;99.90
18456;DHT22;9357;49.900;8.208;2023-04-04T01:00:21;0.80;99.90
18456;DHT22;9357;49.900;8.208;2023-04-04T01:01:54;0.80;99.90
18456;DHT22;9357;49.900;8.208;2023-04-04T01:03:27;0.80;99.90
18456;DHT22;9357;49.900;8.208;2023-04-04T01:05:02;0.80;99.90
18456;DHT22;9357;49.900;8.208;2023-04-04T01:06:35;0.80;99.90
18456;DHT22;9357;49.900;8.208;2023-04-04T01:08:08;0.70;99.90
18456;DHT22;9357;49.900;8.208;2023-04-04T01:09:41;0.70;99.90
18456;DHT22;9357;49.900;8.208;2023-04-04T01:11:14;0.70;99.90
18456;DHT22;9357;49.900;8.208;2023-04-04T01:12:49;0.70;99.90
18456;DHT22;9357;49.900;8.208;2023-04-04T01:14:23;0.70;99.90
18456;DHT22;9357;49.900;8.208;2023-04-04T01:15:56;0.70;99.90
18456;DHT22;9357;49.900;8.208;2023-04-04T01:17:28;0.70;99.90
18456;DHT22;9357;49.900;8.208;2023-04-04T01:19:02;0.70;99.90
18456;DHT22;9357;49.900;8.208;2023-04-04T01:20:43;0.70;99.90
18456;DHT22;9357;49.900;8.208;2023-04-04T01:22:19;0.70;99.90
18456;DHT22;9357;49.900;8.208;2023-04-04T01:23:58;0.70;99.90
18456;DHT22;9357;49.900;8.208;2023-04-04T01:25:33;0.70;99.90
18456;DHT22;9357;49.900;8.208;2023-04-04T01:27:06;0.60;99.90
18456;DHT22;9357;49.900;8.208;2023-04-04T01:28:38;0.60;99.90
18456;DHT22;9357;49.900;8.208;2023-04-04T01:30:12;0.60;99.90
18456;DHT22;9357;49.900;8.208;2023-04-04T01:31:49;0.50;99.90
18456;DHT22;9357;49.900;8.208;2023-04-04T01:33:27;0.50;99.90
18456;DHT22;9357;49.900;8.208;2023-04-04T01:35:08;0.50;99.90
18456;DHT22;9357;49.900;8.208;2023-04-04T01:36:50;0.50;99.90
18456;DHT22;9357;49.900;8.208;2023-04-04T01:38:32;0.50;99.90
18456;DHT22;9357;49.900;8.208;2023-04-04T01:40:13;0.50;99.90
18456;DHT22;9357;49.900;8.208;2023-04-04T01:41:50;0.40;99.90
18456;DHT22;9357;49.900;8.208;2023-04-04T01:43:23;0.40;99.90
18456;DHT22;9357;49.900;8.208;2023-04-04T01:44:56;0.40;99.90
18456;DHT22;9357;49.900;8.208;2023-04-04T01:46:29;0.40;99.90
18456;DHT22;9357;49.900;8.208;2023-04-04T01:48:02;0.40;99.90
18456;DHT22;9357;49.900;8.208;2023-04-04T01:49:35;0.40;99.90
18456;DHT22;9357;49.900;8.208;2023-04-04T01:51:08;0.40;99.90
18456;DHT22;9357;49.900;8.208;2023-04-04T01:52:40;0.40;99.90
18456;DHT22;9357;49.900;8.208;2023-04-04T01:54:12;0.40;99.90
18456;DHT22;9357;49.900;8.208;2023-04-04T01:55:45;0.40;99.90
18456;DHT22;9357;49.900;8.208;2023-04-04T01:57:20;0.40;99.90
18456;DHT22;9357;49.900;8.208;2023-04-04T01:58:52;0.30;99.90
18456;DHT22;9357;49.900;8.208;2023-04-04T02:00:24;0.30;99.90
18456;DHT22;9357;49.900;8.208;2023-04-04T02:01:56;0.30;99.90
18456;DHT22;9357;49.900;8.208;2023-04-04T02:03:29;0.30;99.90
18456;DHT22;9357;49.900;8.208;2023-04-04T02:05:02;0.30;99.90
18456;DHT22;9357;49.900;8.208;2023-04-04T02:06:34;0.30;99.90
18456;DHT22;9357;49.900;8.208;2023-04-04T02:08:07;0.30;99.90
18456;DHT22;9357;49.900;8.208;2023-04-04T02:09:40;0.20;99.90
18456;DHT22;9357;49.900;8.208;2023-04-04T02:11:12;0.20;99.90
18456;DHT22;9357;49.900;8.208;2023-04-04T02:12:46;0.20;99.90
18456;DHT22;9357;49.900;8.208;2023-04-04T02:14:18;0.30;99.90
18456;DHT22;9357;49.900;8.208;2023-04-04T02:15:50;0.30;99.90
18456;DHT22;9357;49.900;8.208;2023-04-04T02:17:22;0.20;99.90
18456;DHT22;9357;49.900;8.208;2023-04-04T02:18:56;0.10;99.90
18456;DHT22;9357;49.900;8.208;2023-04-04T02:20:29;0.20;99.90
18456;DHT22;9357;49.900;8.208;2023-04-04T02:22:02;0.20;99.90
18456;DHT22;9357;49.900;8.208;2023-04-04T02:23:33;0.20;99.90
18456;DHT22;9357;49.900;8.208;2023-04-04T02:25:07;0.20;99.90
18456;DHT22;9357;49.900;8.208;2023-04-04T02:26:39;0.20;99.90
18456;DHT22;9357;49.900;8.208;2023-04-04T02:28:14;0.20;99.90
18456;DHT22;9357;49.900;8.208;2023-04-04T02:29:45;0.20;99.90
18456;DHT22;9357;49.900;8.208;2023-04-04T02:31:19;0.20;99.90
18456;DHT22;9357;49.900;8.208;2023-04-04T02:32:52;0.20;99.90
18456;DHT22;9357;49.900;8.208;2023-04-04T02:34:25;0.20;99.90
18456;DHT22;9357;49.900;8.208;2023-04-04T02:35:58;0.20;99.90
18456;DHT22;9357;49.900;8.208;2023-04-04T02:37:30;0.20;99.90
18456;DHT22;9357;49.900;8.208;2023-04-04T02:39:03;0.20;99.90
18456;DHT22;9357;49.900;8.208;2023-04-04T02:40:36;0.20;99.90
18456;DHT22;9357;49.900;8.208;2023-04-04T02:42:10;0.20;99.90
18456;DHT22;9357;49.900;8.208;2023-04-04T02:43:44;0.20;99.90
18456;DHT22;9357;49.900;8.208;2023-04-04T02:45:17;0.20;99.90
18456;DHT22;9357;49.900;8.208;2023-04-04T02:46:50;0.20;99.90
18456;DHT22;9357;49.900;8.208;2023-04-04T02:48:22;0.20;99.90
18456;DHT22;9357;49.900;8.208;2023-04-04T02:49:56;0.20;99.90
18456;DHT22;9357;49.900;8.208;2023-04-04T02:51:28;0.20;99.90
18456;DHT22;9357;49.900;8.208;2023-04-04T02:53:02;0.20;99.90
18456;DHT22;9357;49.900;8.208;2023-04-04T02:54:35;0.20;99.90
18456;DHT22;9357;49.900;8.208;2023-04-04T02:56:08;0.20;99.90
18456;DHT22;9357;49.900;8.208;2023-04-04T02:57:40;0.20;99.90
18456;DHT22;9357;49.900;8.208;2023-04-04T02:59:14;0.10;99.90
18456;DHT22;9357;49.900;8.208;2023-04-04T03:00:53;0.10;99.90
18456;DHT22;9357;49.900;8.208;2023-04-04T03:02:25;0.10;99.90
18456;DHT22;9357;49.900;8.208;2023-04-04T03:03:58;0.10;99.90
18456;DHT22;9357;49.900;8.208;2023-04-04T03:05:30;0.10;99.90
18456;DHT22;9357;49.900;8.208;2023-04-04T03:07:03;0.10;99.90
18456;DHT22;9357;49.900;8.208;2023-04-04T03:08:36;0.10;99.90
18456;DHT22;9357;49.900;8.208;2023-04-04T03:10:09;0.10;99.90
18456;DHT22;9357;49.900;8.208;2023-04-04T03:11:43;0.10;99.90
18456;DHT22;9357;49.900;8.208;2023-04-04T03:13:15;0.10;99.90
18456;DHT22;9357;49.900;8.208;2023-04-04T03:14:50;0.10;99.90
18456;DHT22;9357;49.900;8.208;2023-04-04T03:16:22;0.10;99.90
18456;DHT22;9357;49.900;8.208;2023-04-04T03:17:54;0.10;99.90
18456;DHT22;9357;49.900;8.208;2023-04-04T03:19:27;0.10;99.90
18456;DHT22;9357;49.900;8.208;2023-04-04T03:21:00;0.10;99.90
18456;DHT22;9357;49.900;8.208;2023-04-04T03:22:33;0.10;99.90
18456;DHT22;9357;49.900;8.208;2023-04-04T03:24:06;0.10;99.90
18456;DHT22;9357;49.900;8.208;2023-04-04T03:25:39;0.10;99.90
18456;DHT22;9357;49.900;8.208;2023-04-04T03:27:12;0.00;99.90
18456;DHT22;9357;49.900;8.208;2023-04-04T03:28:44;0.10;99.90
18456;DHT22;9357;49.900;8.208;2023-04-04T03:30:19;0.10;99.90
18456;DHT22;9357;49.900;8.208;2023-04-04T03:31:52;0.00;99.90
18456;DHT22;9357;49.900;8.208;2023-04-04T03:33:25;0.00;99.90
18456;DHT22;9357;49.900;8.208;2023-04-04T03:34:58;0.00;99.90
18456;DHT22;9357;49.900;8.208;2023-04-04T03:36:30;0.00;99.90
18456;DHT22;9357;49.900;8.208;2023-04-04T03:38:03;0.00;99.90
18456;DHT22;9357;49.900;8.208;2023-04-04T03:39:36;0.00;99.90
18456;DHT22;9357;49.900;8.208;2023-04-04T03:41:09;0.00;99.90
18456;DHT22;9357;49.900;8.208;2023-04-04T03:42:41;-0.10;99.90
18456;DHT22;9357;49.900;8.208;2023-04-04T03:44:13;0.00;99.90
18456;DHT22;9357;49.900;8.208;2023-04-04T03:45:47;0.00;99.90
18456;DHT22;9357;49.900;8.208;2023-04-04T03:47:20;0.00;99.90
18456;DHT22;9357;49.900;8.208;2023-04-04T03:48:52;0.00;99.90
18456;DHT22;9357;49.900;8.208;2023-04-04T03:50:25;-0.10;99.90
18456;DHT22;9357;49.900;8.208;2023-04-04T03:51:57;0.00;99.90
18456;DHT22;9357;49.900;8.208;2023-04-04T03:53:30;0.00;99.90
18456;DHT22;9357;49.900;8.208;2023-04-04T03:55:04;0.00;99.90
18456;DHT22;9357;49.900;8.208;2023-04-04T03:56:37;-0.10;99.90
18456;DHT22;9357;49.900;8.208;2023-04-04T03:58:10;-0.10;99.90
18456;DHT22;9357;49.900;8.208;2023-04-04T03:59:43;-0.10;99.90
18456;DHT22;9357;49.900;8.208;2023-04-04T04:01:18;-0.10;99.90
18456;DHT22;9357;49.900;8.208;2023-04-04T04:02:50;-0.10;99.90
18456;DHT22;9357;49.900;8.208;2023-04-04T04:04:23;-0.10;99.90
18456;DHT22;9357;49.900;8.208;2023-04-04T04:05:56;-0.10;99.90
18456;DHT22;9357;49.900;8.208;2023-04-04T04:07:29;-0.10;99.90
18456;DHT22;9357;49.900;8.208;2023-04-04T04:09:02;-0.10;99.90
18456;DHT22;9357;49.900;8.208;2023-04-04T04:10:35;-0.20;99.90
18456;DHT22;9357;49.900;8.208;2023-04-04T04:12:07;-0.20;99.90
18456;DHT22;9357;49.900;8.208;2023-04-04T04:13:40;-0.20;99.90
18456;DHT22;9357;49.900;8.208;2023-04-04T04:15:13;-0.40;99.90
18456;DHT22;9357;49.900;8.208;2023-04-04T04:16:46;-0.20;99.90
18456;DHT22;9357;49.900;8.208;2023-04-04T04:18:19;-0.30;99.90
18456;DHT22;9357;49.900;8.208;2023-04-04T04:19:52;-0.30;99.90
18456;DHT22;9357;49.900;8.208;2023-04-04T04:21:25;-0.30;99.90
18456;DHT22;9357;49.900;8.208;2023-04-04T04:22:58;-0.30;99.90
18456;DHT22;9357;49.900;8.208;2023-04-04T04:24:30;-0.30;99.90
18456;DHT22;9357;49.900;8.208;2023-04-04T04:26:02;-0.30;99.90
18456;DHT22;9357;49.900;8.208;2023-04-04T04:27:35;-0.20;99.90
18456;DHT22;9357;49.900;8.208;2023-04-04T04:29:08;-0.30;99.90
18456;DHT22;9357;49.900;8.208;2023-04-04T04:30:41;-0.30;99.90
18456;DHT22;9357;49.900;8.208;2023-04-04T04:32:16;-0.30;99.90
18456;DHT22;9357;49.900;8.208;2023-04-04T04:33:49;-0.40;99.90
18456;DHT22;9357;49.900;8.208;2023-04-04T04:35:22;-0.40;99.90
18456;DHT22;9357;49.900;8.208;2023-04-04T04:36:55;-0.30;99.90
18456;DHT22;9357;49.900;8.208;2023-04-04T04:38:28;-0.40;99.90
18456;DHT22;9357;49.900;8.208;2023-04-04T04:40:01;-0.40;99.90
18456;DHT22;9357;49.900;8.208;2023-04-04T04:41:34;-0.40;99.90
18456;DHT22;9357;49.900;8.208;2023-04-04T04:43:09;-0.40;99.90
18456;DHT22;9357;49.900;8.208;2023-04-04T04:44:41;-0.40;99.90
18456;DHT22;9357;49.900;8.208;2023-04-04T04:46:14;-0.40;99.90
18456;DHT22;9357;49.900;8.208;2023-04-04T04:47:49;-0.40;99.90
18456;DHT22;9357;49.900;8.208;2023-04-04T04:49:21;-0.40;99.90
18456;DHT22;9357;49.900;8.208;2023-04-04T04:50:54;-0.30;99.90
18456;DHT22;9357;49.900;8.208;2023-04-04T04:52:28;-0.30;99.90
18456;DHT22;9357;49.900;8.208;2023-04-04T04:54:02;-0.30;99.90
18456;DHT22;9357;49.900;8.208;2023-04-04T04:55:34;-0.30;99.90
18456;DHT22;9357;49.900;8.208;2023-04-04T04:57:08;-0.40;99.90
18456;DHT22;9357;49.900;8.208;2023-04-04T04:58:41;-0.40;99.90
18456;DHT22;9357;49.900;8.208;2023-04-04T05:00:16;-0.40;99.90
18456;DHT22;9357;49.900;8.208;2023-04-04T05:01:49;-0.30;99.90
18456;DHT22;9357;49.900;8.208;2023-04-04T05:03:23;-0.30;99.90
18456;DHT22;9357;49.900;8.208;2023-04-04T05:04:56;-0.40;99.90
18456;DHT22;9357;49.900;8.208;2023-04-04T05:06:29;-0.40;99.90
18456;DHT22;9357;49.900;8.208;2023-04-04T05:08:02;-0.50;99.90
18456;DHT22;9357;49.900;8.208;2023-04-04T05:09:35;-0.40;99.90
18456;DHT22;9357;49.900;8.208;2023-04-04T05:11:07;-0.40;99.90
18456;DHT22;9357;49.900;8.208;2023-04-04T05:12:41;-0.40;99.90
18456;DHT22;9357;49.900;8.208;2023-04-04T05:14:14;-0.40;99.90
18456;DHT22;9357;49.900;8.208;2023-04-04T05:15:46;-0.40;99.90
18456;DHT22;9357;49.900;8.208;2023-04-04T05:17:19;-0.40;99.90
18456;DHT22;9357;49.900;8.208;2023-04-04T05:18:55;-0.40;99.90
18456;DHT22;9357;49.900;8.208;2023-04-04T05:20:27;-0.40;99.90
18456;DHT22;9357;49.900;8.208;2023-04-04T05:22:00;-0.40;99.90
18456;DHT22;9357;49.900;8.208;2023-04-04T05:23:33;-0.40;99.90
18456;DHT22;9357;49.900;8.208;2023-04-04T05:25:06;-0.30;99.90
18456;DHT22;9357;49.900;8.208;2023-04-04T05:26:39;-0.30;99.90
18456;DHT22;9357;49.900;8.208;2023-04-04T05:28:12;-0.40;99.90
18456;DHT22;9357;49.900;8.208;2023-04-04T05:29:45;-0.40;99.90
18456;DHT22;9357;49.900;8.208;2023-04-04T05:31:18;-0.30;99.90
18456;DHT22;9357;49.900;8.208;2023-04-04T05:32:51;-0.30;99.90
18456;DHT22;9357;49.900;8.208;2023-04-04T05:34:25;-0.30;99.90
18456;DHT22;9357;49.900;8.208;2023-04-04T05:35:58;-0.30;99.90
18456;DHT22;9357;49.900;8.208;2023-04-04T05:37:31;-0.30;99.90
18456;DHT22;9357;49.900;8.208;2023-04-04T05:39:05;-0.30;99.90
18456;DHT22;9357;49.900;8.208;2023-04-04T05:40:38;-0.30;99.90
18456;DHT22;9357;49.900;8.208;2023-04-04T05:42:11;-0.30;99.90
18456;DHT22;9357;49.900;8.208;2023-04-04T05:43:44;-0.30;99.90
18456;DHT22;9357;49.900;8.208;2023-04-04T05:45:17;-0.20;99.90
18456;DHT22;9357;49.900;8.208;2023-04-04T05:46:49;-0.30;99.90
18456;DHT22;9357;49.900;8.208;2023-04-04T05:48:22;-0.20;99.90
18456;DHT22;9357;49.900;8.208;2023-04-04T05:49:56;-0.20;99.90
18456;DHT22;9357;49.900;8.208;2023-04-04T05:51:29;-0.20;99.90
18456;DHT22;9357;49.900;8.208;2023-04-04T05:53:02;-0.10;99.90
18456;DHT22;9357;49.900;8.208;2023-04-04T05:54:35;-0.10;99.90
18456;DHT22;9357;49.900;8.208;2023-04-04T05:56:08;-0.10;99.90
18456;DHT22;9357;49.900;8.208;2023-04-04T05:57:46;-0.10;99.90
18456;DHT22;9357;49.900;8.208;2023-04-04T05:59:19;0.00;99.90
18456;DHT22;9357;49.900;8.208;2023-04-04T06:00:52;0.00;99.90
18456;DHT22;9357;49.900;8.208;2023-04-04T06:02:25;0.10;99.90
18456;DHT22;9357;49.900;8.208;2023-04-04T06:03:59;0.00;99.90
18456;DHT22;9357;49.900;8.208;2023-04-04T06:05:33;0.10;99.90
18456;DHT22;9357;49.900;8.208;2023-04-04T06:07:06;0.10;99.90
18456;DHT22;9357;49.900;8.208;2023-04-04T06:08:39;0.10;99.90
18456;DHT22;9357;49.900;8.208;2023-04-04T06:10:24;0.20;99.90
18456;DHT22;9357;49.900;8.208;2023-04-04T06:11:57;0.20;99.90
18456;DHT22;9357;49.900;8.208;2023-04-04T06:13:29;0.20;99.90
18456;DHT22;9357;49.900;8.208;2023-04-04T06:15:02;0.20;99.90
18456;DHT22;9357;49.900;8.208;2023-04-04T06:16:35;0.30;99.90
18456;DHT22;9357;49.900;8.208;2023-04-04T06:18:08;0.30;99.90
18456;DHT22;9357;49.900;8.208;2023-04-04T06:19:41;0.40;99.90
18456;DHT22;9357;49.900;8.208;2023-04-04T06:21:15;0.40;99.90
18456;DHT22;9357;49.900;8.208;2023-04-04T06:22:48;0.50;99.90
18456;DHT22;9357;49.900;8.208;2023-04-04T06:24:21;0.50;99.90
18456;DHT22;9357;49.900;8.208;2023-04-04T06:25:54;0.60;99.90
18456;DHT22;9357;49.900;8.208;2023-04-04T06:27:27;0.60;99.90
18456;DHT22;9357;49.900;8.208;2023-04-04T06:28:59;0.70;99.90
18456;DHT22;9357;49.900;8.208;2023-04-04T06:30:35;0.80;99.90
18456;DHT22;9357;49.900;8.208;2023-04-04T06:32:10;0.80;99.90
18456;DHT22;9357;49.900;8.208;2023-04-04T06:33:42;0.90;99.90
18456;DHT22;9357;49.900;8.208;2023-04-04T06:35:15;0.90;99.90
18456;DHT22;9357;49.900;8.208;2023-04-04T06:36:52;1.00;99.90
18456;DHT22;9357;49.900;8.208;2023-04-04T06:38:24;1.00;99.90
18456;DHT22;9357;49.900;8.208;2023-04-04T06:39:59;1.00;99.90
18456;DHT22;9357;49.900;8.208;2023-04-04T06:41:32;1.00;99.90
18456;DHT22;9357;49.900;8.208;2023-04-04T06:43:05;1.00;99.90
18456;DHT22;9357;49.900;8.208;2023-04-04T06:44:38;1.10;99.90
18456;DHT22;9357;49.900;8.208;2023-04-04T06:46:10;1.10;99.90
18456;DHT22;9357;49.900;8.208;2023-04-04T06:47:43;1.10;99.90
18456;DHT22;9357;49.900;8.208;2023-04-04T06:49:17;1.20;99.90
18456;DHT22;9357;49.900;8.208;2023-04-04T06:50:49;1.20;99.90
18456;DHT22;9357;49.900;8.208;2023-04-04T06:52:25;1.30;99.90
18456;DHT22;9357;49.900;8.208;2023-04-04T06:53:59;1.40;99.90
18456;DHT22;9357;49.900;8.208;2023-04-04T06:55:33;1.40;99.90
18456;DHT22;9357;49.900;8.208;2023-04-04T06:57:06;1.50;99.90
18456;DHT22;9357;49.900;8.208;2023-04-04T06:58:39;1.50;99.90
18456;DHT22;9357;49.900;8.208;2023-04-04T07:00:13;1.60;99.90
18456;DHT22;9357;49.900;8.208;2023-04-04T07:01:46;1.60;99.90
18456;DHT22;9357;49.900;8.208;2023-04-04T07:03:18;1.70;99.90
18456;DHT22;9357;49.900;8.208;2023-04-04T07:04:51;1.70;99.90
18456;DHT22;9357;49.900;8.208;2023-04-04T07:06:24;1.80;99.90
18456;DHT22;9357;49.900;8.208;2023-04-04T07:07:58;1.80;99.90
18456;DHT22;9357;49.900;8.208;2023-04-04T07:09:31;1.90;99.90
18456;DHT22;9357;49.900;8.208;2023-04-04T07:11:04;2.00;99.90
18456;DHT22;9357;49.900;8.208;2023-04-04T07:12:38;2.10;99.90
18456;DHT22;9357;49.900;8.208;2023-04-04T07:14:11;2.10;99.90
18456;DHT22;9357;49.900;8.208;2023-04-04T07:15:45;2.10;99.90
18456;DHT22;9357;49.900;8.208;2023-04-04T07:17:20;2.20;99.90
18456;DHT22;9357;49.900;8.208;2023-04-04T07:18:56;2.20;99.90
18456;DHT22;9357;49.900;8.208;2023-04-04T07:20:29;2.20;99.90
18456;DHT22;9357;49.900;8.208;2023-04-04T07:22:02;2.30;99.90
18456;DHT22;9357;49.900;8.208;2023-04-04T07:23:36;2.40;99.90
18456;DHT22;9357;49.900;8.208;2023-04-04T07:25:09;2.40;99.90
18456;DHT22;9357;49.900;8.208;2023-04-04T07:26:42;2.50;99.90
18456;DHT22;9357;49.900;8.208;2023-04-04T07:28:15;2.50;99.90
18456;DHT22;9357;49.900;8.208;2023-04-04T07:29:48;2.50;99.90
18456;DHT22;9357;49.900;8.208;2023-04-04T07:31:21;2.50;99.90
18456;DHT22;9357;49.900;8.208;2023-04-04T07:32:56;2.60;99.90
18456;DHT22;9357;49.900;8.208;2023-04-04T07:34:29;2.60;99.90
18456;DHT22;9357;49.900;8.208;2023-04-04T07:36:02;2.70;99.90
18456;DHT22;9357;49.900;8.208;2023-04-04T07:37:35;2.70;99.90
18456;DHT22;9357;49.900;8.208;2023-04-04T07:39:10;2.80;99.90
18456;DHT22;9357;49.900;8.208;2023-04-04T07:40:43;2.70;99.90
18456;DHT22;9357;49.900;8.208;2023-04-04T07:42:15;2.80;99.90
18456;DHT22;9357;49.900;8.208;2023-04-04T07:43:53;2.90;99.90
18456;DHT22;9357;49.900;8.208;2023-04-04T07:45:26;2.90;99.90
18456;DHT22;9357;49.900;8.208;2023-04-04T07:46:59;3.00;99.90
18456;DHT22;9357;49.900;8.208;2023-04-04T07:48:40;3.00;99.90
18456;DHT22;9357;49.900;8.208;2023-04-04T07:50:13;3.10;99.90
18456;DHT22;9357;49.900;8.208;2023-04-04T07:51:46;3.10;99.90
18456;DHT22;9357;49.900;8.208;2023-04-04T07:53:19;3.20;99.90
18456;DHT22;9357;49.900;8.208;2023-04-04T07:54:54;3.30;99.90
18456;DHT22;9357;49.900;8.208;2023-04-04T07:56:27;3.50;99.90
18456;DHT22;9357;49.900;8.208;2023-04-04T07:57:59;3.70;99.90
18456;DHT22;9357;49.900;8.208;2023-04-04T07:59:32;3.90;99.90
18456;DHT22;9357;49.900;8.208;2023-04-04T08:01:05;4.30;99.90
18456;DHT22;9357;49.900;8.208;2023-04-04T08:02:38;4.50;99.90
18456;DHT22;9357;49.900;8.208;2023-04-04T08:04:11;4.80;99.90
18456;DHT22;9357;49.900;8.208;2023-04-04T08:05:44;5.00;99.90
18456;DHT22;9357;49.900;8.208;2023-04-04T08:07:17;5.10;99.90
18456;DHT22;9357;49.900;8.208;2023-04-04T08:08:50;5.20;99.90
18456;DHT22;9357;49.900;8.208;2023-04-04T08:10:24;5.40;99.90
18456;DHT22;9357;49.900;8.208;2023-04-04T08:11:57;5.50;99.90
18456;DHT22;9357;49.900;8.208;2023-04-04T08:13:30;5.80;99.90
18456;DHT22;9357;49.900;8.208;2023-04-04T08:15:03;6.00;99.90
18456;DHT22;9357;49.900;8.208;2023-04-04T08:16:36;6.20;99.90
18456;DHT22;9357;49.900;8.208;2023-04-04T08:18:09;6.40;99.90
18456;DHT22;9357;49.900;8.208;2023-04-04T08:19:42;6.60;99.90
18456;DHT22;9357;49.900;8.208;2023-04-04T08:21:14;6.70;99.90
18456;DHT22;9357;49.900;8.208;2023-04-04T08:22:47;6.90;99.90
18456;DHT22;9357;49.900;8.208;2023-04-04T08:24:20;7.10;99.90
18456;DHT22;9357;49.900;8.208;2023-04-04T08:25:57;7.30;99.90
18456;DHT22;9357;49.900;8.208;2023-04-04T08:27:30;7.60;99.90
18456;DHT22;9357;49.900;8.208;2023-04-04T08:29:04;7.80;99.90
18456;DHT22;9357;49.900;8.208;2023-04-04T08:30:38;7.90;99.90
18456;DHT22;9357;49.900;8.208;2023-04-04T08:32:11;8.10;99.90
18456;DHT22;9357;49.900;8.208;2023-04-04T08:33:45;8.20;99.90
18456;DHT22;9357;49.900;8.208;2023-04-04T08:35:18;8.40;99.90
18456;DHT22;9357;49.900;8.208;2023-04-04T08:36:51;8.50;99.90
18456;DHT22;9357;49.900;8.208;2023-04-04T08:38:24;8.70;99.90
18456;DHT22;9357;49.900;8.208;2023-04-04T08:39:57;8.80;99.90
18456;DHT22;9357;49.900;8.208;2023-04-04T08:41:32;8.90;99.90
18456;DHT22;9357;49.900;8.208;2023-04-04T08:43:06;9.00;99.90
18456;DHT22;9357;49.900;8.208;2023-04-04T08:44:41;9.10;99.90
18456;DHT22;9357;49.900;8.208;2023-04-04T08:46:15;9.20;99.90
18456;DHT22;9357;49.900;8.208;2023-04-04T08:47:49;9.30;99.90
18456;DHT22;9357;49.900;8.208;2023-04-04T08:49:25;9.40;99.90
18456;DHT22;9357;49.900;8.208;2023-04-04T08:50:59;9.50;99.90
18456;DHT22;9357;49.900;8.208;2023-04-04T08:52:34;9.50;99.90
18456;DHT22;9357;49.900;8.208;2023-04-04T08:54:07;9.60;99.90
18456;DHT22;9357;49.900;8.208;2023-04-04T08:55:41;9.70;99.90
18456;DHT22;9357;49.900;8.208;2023-04-04T08:57:15;9.70;99.90
18456;DHT22;9357;49.900;8.208;2023-04-04T08:58:48;9.90;99.90
18456;DHT22;9357;49.900;8.208;2023-04-04T09:00:21;10.00;99.90
18456;DHT22;9357;49.900;8.208;2023-04-04T09:01:59;10.10;99.90
18456;DHT22;9357;49.900;8.208;2023-04-04T09:03:33;10.20;99.90
18456;DHT22;9357;49.900;8.208;2023-04-04T09:05:07;10.30;99.90
18456;DHT22;9357;49.900;8.208;2023-04-04T09:06:41;10.40;99.90
18456;DHT22;9357;49.900;8.208;2023-04-04T09:08:15;10.40;99.90
18456;DHT22;9357;49.900;8.208;2023-04-04T09:09:50;10.40;99.90
18456;DHT22;9357;49.900;8.208;2023-04-04T09:11:25;10.30;99.90
18456;DHT22;9357;49.900;8.208;2023-04-04T09:13:01;10.30;99.90
18456;DHT22;9357;49.900;8.208;2023-04-04T09:14:46;10.20;99.90
18456;DHT22;9357;49.900;8.208;2023-04-04T09:16:22;10.20;99.90
18456;DHT22;9357;49.900;8.208;2023-04-04T09:17:55;10.30;99.90
18456;DHT22;9357;49.900;8.208;2023-04-04T09:19:28;10.40;99.90
18456;DHT22;9357;49.900;8.208;2023-04-04T09:21:08;10.60;99.90
18456;DHT22;9357;49.900;8.208;2023-04-04T09:22:43;10.60;99.90
18456;DHT22;9357;49.900;8.208;2023-04-04T09:24:16;10.50;99.90
18456;DHT22;9357;49.900;8.208;2023-04-04T09:25:50;10.40;99.90
18456;DHT22;9357;49.900;8.208;2023-04-04T09:27:34;10.30;99.90
18456;DHT22;9357;49.900;8.208;2023-04-04T09:29:08;10.40;99.90
18456;DHT22;9357;49.900;8.208;2023-04-04T09:30:42;10.40;99.90
18456;DHT22;9357;49.900;8.208;2023-04-04T09:32:15;10.50;99.90
18456;DHT22;9357;49.900;8.208;2023-04-04T09:33:48;10.70;99.90
18456;DHT22;9357;49.900;8.208;2023-04-04T09:35:22;10.70;99.90
18456;DHT22;9357;49.900;8.208;2023-04-04T09:36:56;10.80;99.90
18456;DHT22;9357;49.900;8.208;2023-04-04T09:38:29;10.80;99.90
18456;DHT22;9357;49.900;8.208;2023-04-04T09:40:03;10.80;99.90
18456;DHT22;9357;49.900;8.208;2023-04-04T09:41:37;10.90;99.90
18456;DHT22;9357;49.900;8.208;2023-04-04T09:43:11;11.10;99.90
18456;DHT22;9357;49.900;8.208;2023-04-04T09:44:46;11.20;99.90
18456;DHT22;9357;49.900;8.208;2023-04-04T09:46:19;11.30;99.90
18456;DHT22;9357;49.900;8.208;2023-04-04T09:47:52;11.30;99.90
18456;DHT22;9357;49.900;8.208;2023-04-04T09:49:25;11.20;99.90
18456;DHT22;9357;49.900;8.208;2023-04-04T09:50:58;11.00;99.90
18456;DHT22;9357;49.900;8.208;2023-04-04T09:52:32;10.80;99.90
18456;DHT22;9357;49.900;8.208;2023-04-04T09:54:09;10.70;99.90
18456;DHT22;9357;49.900;8.208;2023-04-04T09:55:57;10.80;99.90
18456;DHT22;9357;49.900;8.208;2023-04-04T09:57:31;10.90;99.90
18456;DHT22;9357;49.900;8.208;2023-04-04T09:59:06;11.10;99.90
18456;DHT22;9357;49.900;8.208;2023-04-04T10:00:41;11.30;99.90
18456;DHT22;9357;49.900;8.208;2023-04-04T10:02:18;11.40;99.90
18456;DHT22;9357;49.900;8.208;2023-04-04T10:03:52;11.30;99.90
18456;DHT22;9357;49.900;8.208;2023-04-04T10:05:25;11.20;99.90
18456;DHT22;9357;49.900;8.208;2023-04-04T10:06:59;11.00;99.90
18456;DHT22;9357;49.900;8.208;2023-04-04T10:08:33;10.80;99.90